sensor_id;sensor_type;location;lat;lon;timestamp;temperature;humidity
9973;DHT22;5027;53.560;10.062;2023-03-19T00:00:26;14.90;99.90
9973;DHT22;5027;53.560;10.062;2023-03-19T00:02:53;14.90;99.90
9973;DHT22;5027;53.560;10.062;2023-03-19T00:05:20;14.80;99.90
9973;DHT22;5027;53.560;10.062;2023-03-19T00:07:47;14.80;99.90
9973;DHT22;5027;53.560;10.062;2023-03-19T00:10:13;14.80;99.90
9973;DHT22;5027;53.560;10.062;2023-03-19T00:12:40;14.80;99.90
9973;DHT22;5027;53.560;10.062;2023-03-19T00:15:07;14.70;99.90
9973;DHT22;5027;53.560;10.062;2023-03-19T00:17:40;14.70;99.90
9973;DHT22;5027;53.560;10.062;2023-03-19T00:20:08;14.70;99.90
9973;DHT22;5027;53.560;10.062;2023-03-19T00:22:35;14.70;99.90
9973;DHT22;5027;53.560;10.062;2023-03-19T00:25:02;14.70;99.90
9973;DHT22;5027;53.560;10.062;2023-03-19T00:27:29;14.70;99.90
9973;DHT22;5027;53.560;10.062;2023-03-19T00:29:55;14.80;99.90
9973;DHT22;5027;53.560;10.062;2023-03-19T00:32:22;14.80;99.90
9973;DHT22;5027;53.560;10.062;2023-03-19T00:34:49;14.70;99.90
9973;DHT22;5027;53.560;10.062;2023-03-19T00:37:16;14.70;99.90
9973;DHT22;5027;53.560;10.062;2023-03-19T00:39:43;14.70;99.90
9973;DHT22;5027;53.560;10.062;2023-03-19T00:42:10;14.80;99.90
9973;DHT22;5027;53.560;10.062;2023-03-19T00:44:37;14.70;99.90
9973;DHT22;5027;53.560;10.062;2023-03-19T00:47:04;14.70;99.90
9973;DHT22;5027;53.560;10.062;2023-03-19T00:49:32;14.70;99.90
9973;DHT22;5027;53.560;10.062;2023-03-19T00:51:58;14.60;99.90
9973;DHT22;5027;53.560;10.062;2023-03-19T00:54:25;14.70;99.90
9973;DHT22;5027;53.560;10.062;2023-03-19T00:56:52;14.60;99.90
9973;DHT22;5027;53.560;10.062;2023-03-19T00:59:19;14.70;99.90
9973;DHT22;5027;53.560;10.062;2023-03-19T01:01:46;14.70;99.90
9973;DHT22;5027;53.560;10.062;2023-03-19T01:04:12;14.60;99.90
9973;DHT22;5027;53.560;10.062;2023-03-19T01:06:40;14.60;99.90
9973;DHT22;5027;53.560;10.062;2023-03-19T01:09:07;14.60;99.90
9973;DHT22;5027;53.560;10.062;2023-03-19T01:11:34;14.60;99.90
9973;DHT22;5027;53.560;10.062;2023-03-19T01:14:01;14.60;99.90
9973;DHT22;5027;53.560;10.062;2023-03-19T01:16:28;14.60;99.90
9973;DHT22;5027;53.560;10.062;2023-03-19T01:18:55;14.60;99.90
9973;DHT22;5027;53.560;10.062;2023-03-19T01:21:22;14.50;99.90
9973;DHT22;5027;53.560;10.062;2023-03-19T01:23:49;14.50;99.90
9973;DHT22;5027;53.560;10.062;2023-03-19T01:26:18;14.60;99.90
9973;DHT22;5027;53.560;10.062;2023-03-19T01:28:48;14.60;99.90
9973;DHT22;5027;53.560;10.062;2023-03-19T01:31:15;14.50;99.90
9973;DHT22;5027;53.560;10.062;2023-03-19T01:33:54;14.60;99.90
9973;DHT22;5027;53.560;10.062;2023-03-19T01:36:40;14.60;99.90
9973;DHT22;5027;53.560;10.062;2023-03-19T01:39:07;14.60;99.90
9973;DHT22;5027;53.560;10.062;2023-03-19T01:41:34;14.50;99.90
9973;DHT22;5027;53.560;10.062;2023-03-19T01:44:33;14.50;99.90
9973;DHT22;5027;53.560;10.062;2023-03-19T01:47:34;14.50;99.90
9973;DHT22;5027;53.560;10.062;2023-03-19T01:50:28;14.50;99.90
9973;DHT22;5027;53.560;10.062;2023-03-19T01:53:14;14.50;99.90
9973;DHT22;5027;53.560;10.062;2023-03-19T01:56:11;14.50;99.90
9973;DHT22;5027;53.560;10.062;2023-03-19T01:58:55;14.50;99.90
9973;DHT22;5027;53.560;10.062;2023-03-19T02:01:39;14.50;99.90
9973;DHT22;5027;53.560;10.062;2023-03-19T02:04:09;14.50;99.90
9973;DHT22;5027;53.560;10.062;2023-03-19T02:06:36;14.50;99.90
9973;DHT22;5027;53.560;10.062;2023-03-19T02:09:03;14.50;99.90
9973;DHT22;5027;53.560;10.062;2023-03-19T02:11:31;14.50;99.90
9973;DHT22;5027;53.560;10.062;2023-03-19T02:13:58;14.50;99.90
9973;DHT22;5027;53.560;10.062;2023-03-19T02:16:25;14.50;99.90
9973;DHT22;5027;53.560;10.062;2023-03-19T02:18:52;14.40;99.90
9973;DHT22;5027;53.560;10.062;2023-03-19T02:21:20;14.40;99.90
9973;DHT22;5027;53.560;10.062;2023-03-19T02:24:15;14.40;99.90
9973;DHT22;5027;53.560;10.062;2023-03-19T02:26:51;14.40;99.90
9973;DHT22;5027;53.560;10.062;2023-03-19T02:29:18;14.40;99.90
9973;DHT22;5027;53.560;10.062;2023-03-19T02:31:45;14.40;99.90
9973;DHT22;5027;53.560;10.062;2023-03-19T02:36:56;14.40;99.90
9973;DHT22;5027;53.560;10.062;2023-03-19T02:39:32;14.40;99.90
9973;DHT22;5027;53.560;10.062;2023-03-19T02:42:00;14.40;99.90
9973;DHT22;5027;53.560;10.062;2023-03-19T02:44:29;14.40;99.90
9973;DHT22;5027;53.560;10.062;2023-03-19T02:46:56;14.40;99.90
9973;DHT22;5027;53.560;10.062;2023-03-19T02:49:23;14.40;99.90
9973;DHT22;5027;53.560;10.062;2023-03-19T02:51:50;14.30;99.90
9973;DHT22;5027;53.560;10.062;2023-03-19T02:54:17;14.20;99.90
9973;DHT22;5027;53.560;10.062;2023-03-19T02:56:43;14.20;99.90
9973;DHT22;5027;53.560;10.062;2023-03-19T02:59:11;14.20;99.90
9973;DHT22;5027;53.560;10.062;2023-03-19T03:01:38;14.20;99.90
9973;DHT22;5027;53.560;10.062;2023-03-19T03:04:05;14.20;99.90
9973;DHT22;5027;53.560;10.062;2023-03-19T03:06:32;14.30;99.90
9973;DHT22;5027;53.560;10.062;2023-03-19T03:09:01;14.30;99.90
9973;DHT22;5027;53.560;10.062;2023-03-19T03:11:27;14.30;99.90
9973;DHT22;5027;53.560;10.062;2023-03-19T03:13:54;14.30;99.90
9973;DHT22;5027;53.560;10.062;2023-03-19T03:16:22;14.30;99.90
9973;DHT22;5027;53.560;10.062;2023-03-19T03:18:48;14.20;99.90
9973;DHT22;5027;53.560;10.062;2023-03-19T03:21:18;14.30;99.90
9973;DHT22;5027;53.560;10.062;2023-03-19T03:23:47;14.20;99.90
9973;DHT22;5027;53.560;10.062;2023-03-19T03:26:14;14.20;99.90
9973;DHT22;5027;53.560;10.062;2023-03-19T03:28:40;14.30;99.90
9973;DHT22;5027;53.560;10.062;2023-03-19T03:31:07;14.30;99.90
9973;DHT22;5027;53.560;10.062;2023-03-19T03:33:38;14.20;99.90
9973;DHT22;5027;53.560;10.062;2023-03-19T03:36:05;14.10;99.90
9973;DHT22;5027;53.560;10.062;2023-03-19T03:38:32;14.10;99.90
9973;DHT22;5027;53.560;10.062;2023-03-19T03:41:00;14.00;99.90
9973;DHT22;5027;53.560;10.062;2023-03-19T03:43:26;14.10;99.90
9973;DHT22;5027;53.560;10.062;2023-03-19T03:45:53;14.10;99.90
9973;DHT22;5027;53.560;10.062;2023-03-19T03:48:20;14.10;99.90
9973;DHT22;5027;53.560;10.062;2023-03-19T03:50:48;14.00;99.90
9973;DHT22;5027;53.560;10.062;2023-03-19T03:53:19;14.00;99.90
9973;DHT22;5027;53.560;10.062;2023-03-19T03:55:45;14.00;99.90
9973;DHT22;5027;53.560;10.062;2023-03-19T03:58:13;14.10;99.90
9973;DHT22;5027;53.560;10.062;2023-03-19T04:00:40;14.10;99.90
9973;DHT22;5027;53.560;10.062;2023-03-19T04:03:07;14.10;99.90
9973;DHT22;5027;53.560;10.062;2023-03-19T04:05:34;14.10;99.90
9973;DHT22;5027;53.560;10.062;2023-03-19T04:08:02;14.10;99.90
9973;DHT22;5027;53.560;10.062;2023-03-19T04:10:29;14.20;99.90
9973;DHT22;5027;53.560;10.062;2023-03-19T04:12:56;14.10;99.90
9973;DHT22;5027;53.560;10.062;2023-03-19T04:15:27;14.10;99.90
9973;DHT22;5027;53.560;10.062;2023-03-19T04:17:56;14.10;99.90
9973;DHT22;5027;53.560;10.062;2023-03-19T04:20:23;14.10;99.90
9973;DHT22;5027;53.560;10.062;2023-03-19T04:22:49;14.10;99.90
9973;DHT22;5027;53.560;10.062;2023-03-19T04:25:16;14.10;99.90
9973;DHT22;5027;53.560;10.062;2023-03-19T04:27:44;14.10;99.90
9973;DHT22;5027;53.560;10.062;2023-03-19T04:30:12;14.00;99.90
9973;DHT22;5027;53.560;10.062;2023-03-19T04:32:40;14.10;99.90
9973;DHT22;5027;53.560;10.062;2023-03-19T04:35:07;14.10;99.90
9973;DHT22;5027;53.560;10.062;2023-03-19T04:37:34;14.10;99.90
9973;DHT22;5027;53.560;10.062;2023-03-19T04:40:01;14.10;99.90
9973;DHT22;5027;53.560;10.062;2023-03-19T04:42:31;14.00;99.90
9973;DHT22;5027;53.560;10.062;2023-03-19T04:45:21;14.00;99.90
9973;DHT22;5027;53.560;10.062;2023-03-19T04:47:48;14.00;99.90
9973;DHT22;5027;53.560;10.062;2023-03-19T04:50:15;14.00;99.90
9973;DHT22;5027;53.560;10.062;2023-03-19T04:52:43;14.00;99.90
9973;DHT22;5027;53.560;10.062;2023-03-19T04:55:10;14.00;99.90
9973;DHT22;5027;53.560;10.062;2023-03-19T04:57:50;13.90;99.90
9973;DHT22;5027;53.560;10.062;2023-03-19T05:00:19;14.00;99.90
9973;DHT22;5027;53.560;10.062;2023-03-19T05:02:47;14.00;99.90
9973;DHT22;5027;53.560;10.062;2023-03-19T05:05:14;14.00;99.90
9973;DHT22;5027;53.560;10.062;2023-03-19T05:07:41;14.00;99.90
9973;DHT22;5027;53.560;10.062;2023-03-19T05:10:10;14.00;99.90
9973;DHT22;5027;53.560;10.062;2023-03-19T05:12:37;14.00;99.90
9973;DHT22;5027;53.560;10.062;2023-03-19T05:15:06;14.00;99.90
9973;DHT22;5027;53.560;10.062;2023-03-19T05:17:37;14.00;99.90
9973;DHT22;5027;53.560;10.062;2023-03-19T05:20:11;13.90;99.90
9973;DHT22;5027;53.560;10.062;2023-03-19T05:22:43;13.80;99.90
9973;DHT22;5027;53.560;10.062;2023-03-19T05:25:10;13.90;99.90
9973;DHT22;5027;53.560;10.062;2023-03-19T05:27:39;13.90;99.90
9973;DHT22;5027;53.560;10.062;2023-03-19T05:30:09;14.00;99.90
9973;DHT22;5027;53.560;10.062;2023-03-19T05:33:00;13.90;99.90
9973;DHT22;5027;53.560;10.062;2023-03-19T05:35:33;14.00;99.90
9973;DHT22;5027;53.560;10.062;2023-03-19T05:38:03;14.00;99.90
9973;DHT22;5027;53.560;10.062;2023-03-19T05:40:30;14.00;99.90
9973;DHT22;5027;53.560;10.062;2023-03-19T05:43:02;14.00;99.90
9973;DHT22;5027;53.560;10.062;2023-03-19T05:45:29;14.00;99.90
9973;DHT22;5027;53.560;10.062;2023-03-19T05:48:02;14.00;99.90
9973;DHT22;5027;53.560;10.062;2023-03-19T05:50:33;13.90;99.90
9973;DHT22;5027;53.560;10.062;2023-03-19T05:53:19;13.90;99.90
9973;DHT22;5027;53.560;10.062;2023-03-19T05:56:03;13.90;99.90
9973;DHT22;5027;53.560;10.062;2023-03-19T05:58:36;13.90;99.90
9973;DHT22;5027;53.560;10.062;2023-03-19T06:01:02;13.90;99.90
9973;DHT22;5027;53.560;10.062;2023-03-19T06:03:30;13.90;99.90
9973;DHT22;5027;53.560;10.062;2023-03-19T06:06:01;13.90;99.90
9973;DHT22;5027;53.560;10.062;2023-03-19T06:08:33;13.90;99.90
9973;DHT22;5027;53.560;10.062;2023-03-19T06:11:16;13.90;99.90
9973;DHT22;5027;53.560;10.062;2023-03-19T06:13:48;13.90;99.90
9973;DHT22;5027;53.560;10.062;2023-03-19T06:16:17;13.70;99.90
9973;DHT22;5027;53.560;10.062;2023-03-19T06:18:50;13.70;99.90
9973;DHT22;5027;53.560;10.062;2023-03-19T06:21:17;13.80;99.90
9973;DHT22;5027;53.560;10.062;2023-03-19T06:23:44;13.70;99.90
9973;DHT22;5027;53.560;10.062;2023-03-19T06:26:14;13.80;99.90
9973;DHT22;5027;53.560;10.062;2023-03-19T06:28:47;13.80;99.90
9973;DHT22;5027;53.560;10.062;2023-03-19T06:31:15;13.80;99.90
9973;DHT22;5027;53.560;10.062;2023-03-19T06:34:05;13.90;99.90
9973;DHT22;5027;53.560;10.062;2023-03-19T06:36:38;13.90;99.90
9973;DHT22;5027;53.560;10.062;2023-03-19T06:39:08;13.80;99.90
9973;DHT22;5027;53.560;10.062;2023-03-19T06:41:35;13.90;99.90
9973;DHT22;5027;53.560;10.062;2023-03-19T06:44:15;13.90;99.90
9973;DHT22;5027;53.560;10.062;2023-03-19T06:46:42;14.00;99.90
9973;DHT22;5027;53.560;10.062;2023-03-19T06:49:09;14.00;99.90
9973;DHT22;5027;53.560;10.062;2023-03-19T06:51:35;14.00;99.90
9973;DHT22;5027;53.560;10.062;2023-03-19T06:54:02;14.00;99.90
9973;DHT22;5027;53.560;10.062;2023-03-19T06:56:29;14.00;99.90
9973;DHT22;5027;53.560;10.062;2023-03-19T06:58:56;14.00;99.90
9973;DHT22;5027;53.560;10.062;2023-03-19T07:01:22;14.10;99.90
9973;DHT22;5027;53.560;10.062;2023-03-19T07:03:49;14.10;99.90
9973;DHT22;5027;53.560;10.062;2023-03-19T07:06:16;14.10;99.90
9973;DHT22;5027;53.560;10.062;2023-03-19T07:08:43;14.10;99.90
9973;DHT22;5027;53.560;10.062;2023-03-19T07:11:12;14.10;99.90
9973;DHT22;5027;53.560;10.062;2023-03-19T07:13:39;14.10;99.90
9973;DHT22;5027;53.560;10.062;2023-03-19T07:16:06;14.20;99.90
9973;DHT22;5027;53.560;10.062;2023-03-19T07:18:32;14.20;99.90
9973;DHT22;5027;53.560;10.062;2023-03-19T07:20:59;14.20;99.90
9973;DHT22;5027;53.560;10.062;2023-03-19T07:23:26;14.20;99.90
9973;DHT22;5027;53.560;10.062;2023-03-19T07:25:52;14.20;99.90
9973;DHT22;5027;53.560;10.062;2023-03-19T07:28:19;14.20;99.90
9973;DHT22;5027;53.560;10.062;2023-03-19T07:30:46;14.10;99.90
9973;DHT22;5027;53.560;10.062;2023-03-19T07:33:12;14.20;99.90
9973;DHT22;5027;53.560;10.062;2023-03-19T07:35:39;14.30;99.90
9973;DHT22;5027;53.560;10.062;2023-03-19T07:38:06;14.30;99.90
9973;DHT22;5027;53.560;10.062;2023-03-19T07:40:32;14.30;99.90
9973;DHT22;5027;53.560;10.062;2023-03-19T07:42:59;14.40;99.90
9973;DHT22;5027;53.560;10.062;2023-03-19T07:45:26;14.30;99.90
9973;DHT22;5027;53.560;10.062;2023-03-19T07:47:52;14.30;99.90
9973;DHT22;5027;53.560;10.062;2023-03-19T07:50:19;14.30;99.90
9973;DHT22;5027;53.560;10.062;2023-03-19T07:52:46;14.30;99.90
9973;DHT22;5027;53.560;10.062;2023-03-19T07:55:14;14.30;99.90
9973;DHT22;5027;53.560;10.062;2023-03-19T07:57:41;14.30;99.90
9973;DHT22;5027;53.560;10.062;2023-03-19T08:00:09;14.30;99.90
9973;DHT22;5027;53.560;10.062;2023-03-19T08:02:39;14.40;99.90
9973;DHT22;5027;53.560;10.062;2023-03-19T08:05:08;14.40;99.90
9973;DHT22;5027;53.560;10.062;2023-03-19T08:07:35;14.40;99.90
9973;DHT22;5027;53.560;10.062;2023-03-19T08:10:06;14.40;99.90
9973;DHT22;5027;53.560;10.062;2023-03-19T08:12:33;14.30;99.90
9973;DHT22;5027;53.560;10.062;2023-03-19T08:15:06;14.30;99.90
9973;DHT22;5027;53.560;10.062;2023-03-19T08:17:33;14.30;99.90
9973;DHT22;5027;53.560;10.062;2023-03-19T08:20:05;14.40;99.90
9973;DHT22;5027;53.560;10.062;2023-03-19T08:22:35;14.40;99.90
9973;DHT22;5027;53.560;10.062;2023-03-19T08:25:03;14.40;99.90
9973;DHT22;5027;53.560;10.062;2023-03-19T08:27:32;14.40;99.90
9973;DHT22;5027;53.560;10.062;2023-03-19T08:30:06;14.50;99.90
9973;DHT22;5027;53.560;10.062;2023-03-19T08:32:34;14.50;99.90
9973;DHT22;5027;53.560;10.062;2023-03-19T08:35:01;14.60;99.90
9973;DHT22;5027;53.560;10.062;2023-03-19T08:37:28;14.60;99.90
9973;DHT22;5027;53.560;10.062;2023-03-19T08:39:55;14.60;99.90
9973;DHT22;5027;53.560;10.062;2023-03-19T08:42:21;14.70;99.90
9973;DHT22;5027;53.560;10.062;2023-03-19T08:44:49;14.70;99.90
9973;DHT22;5027;53.560;10.062;2023-03-19T08:47:15;14.60;99.90
9973;DHT22;5027;53.560;10.062;2023-03-19T08:49:42;14.70;99.90
9973;DHT22;5027;53.560;10.062;2023-03-19T08:52:09;14.70;99.90
9973;DHT22;5027;53.560;10.062;2023-03-19T08:54:36;14.80;99.90
9973;DHT22;5027;53.560;10.062;2023-03-19T08:57:02;14.80;99.90
9973;DHT22;5027;53.560;10.062;2023-03-19T08:59:29;14.80;99.90
9973;DHT22;5027;53.560;10.062;2023-03-19T09:01:59;14.80;99.90
9973;DHT22;5027;53.560;10.062;2023-03-19T09:04:27;14.80;99.90
9973;DHT22;5027;53.560;10.062;2023-03-19T09:06:53;14.90;99.90
9973;DHT22;5027;53.560;10.062;2023-03-19T09:09:22;14.90;99.90
9973;DHT22;5027;53.560;10.062;2023-03-19T09:11:49;14.90;99.90
9973;DHT22;5027;53.560;10.062;2023-03-19T09:14:16;14.90;99.90
9973;DHT22;5027;53.560;10.062;2023-03-19T09:16:45;15.00;99.90
9973;DHT22;5027;53.560;10.062;2023-03-19T09:19:12;15.00;99.90
9973;DHT22;5027;53.560;10.062;2023-03-19T09:21:39;15.00;99.90
9973;DHT22;5027;53.560;10.062;2023-03-19T09:24:06;15.00;99.90
9973;DHT22;5027;53.560;10.062;2023-03-19T09:26:33;15.10;99.90
9973;DHT22;5027;53.560;10.062;2023-03-19T09:29:00;15.10;99.90
9973;DHT22;5027;53.560;10.062;2023-03-19T09:31:27;15.10;99.90
9973;DHT22;5027;53.560;10.062;2023-03-19T09:33:55;15.10;99.90
9973;DHT22;5027;53.560;10.062;2023-03-19T09:36:22;15.10;99.90
9973;DHT22;5027;53.560;10.062;2023-03-19T09:38:53;15.10;99.90
9973;DHT22;5027;53.560;10.062;2023-03-19T09:44:39;15.20;99.90
9973;DHT22;5027;53.560;10.062;2023-03-19T09:47:25;15.20;99.90
9973;DHT22;5027;53.560;10.062;2023-03-19T09:49:59;15.20;99.90
9973;DHT22;5027;53.560;10.062;2023-03-19T09:55:33;15.30;99.90
9973;DHT22;5027;53.560;10.062;2023-03-19T09:58:09;15.30;99.90
9973;DHT22;5027;53.560;10.062;2023-03-19T10:00:38;15.50;99.90
9973;DHT22;5027;53.560;10.062;2023-03-19T10:03:31;15.50;99.90
9973;DHT22;5027;53.560;10.062;2023-03-19T10:09:31;15.50;99.90
9973;DHT22;5027;53.560;10.062;2023-03-19T10:12:13;15.50;99.90
9973;DHT22;5027;53.560;10.062;2023-03-19T10:17:42;15.40;99.90
9973;DHT22;5027;53.560;10.062;2023-03-19T10:23:25;15.50;99.90
9973;DHT22;5027;53.560;10.062;2023-03-19T10:25:56;15.60;99.90
9973;DHT22;5027;53.560;10.062;2023-03-19T10:28:26;15.60;99.90
9973;DHT22;5027;53.560;10.062;2023-03-19T10:31:11;15.70;99.90
9973;DHT22;5027;53.560;10.062;2023-03-19T10:33:49;15.60;99.90
9973;DHT22;5027;53.560;10.062;2023-03-19T10:36:19;15.70;99.90
9973;DHT22;5027;53.560;10.062;2023-03-19T10:38:47;15.70;99.90
9973;DHT22;5027;53.560;10.062;2023-03-19T10:41:28;15.70;99.90
9973;DHT22;5027;53.560;10.062;2023-03-19T10:44:05;15.70;99.90
9973;DHT22;5027;53.560;10.062;2023-03-19T10:46:39;15.70;99.90
9973;DHT22;5027;53.560;10.062;2023-03-19T10:49:13;15.70;99.90
9973;DHT22;5027;53.560;10.062;2023-03-19T10:51:43;15.70;99.90
9973;DHT22;5027;53.560;10.062;2023-03-19T10:54:24;15.70;99.90
9973;DHT22;5027;53.560;10.062;2023-03-19T10:56:55;16.00;99.90
9973;DHT22;5027;53.560;10.062;2023-03-19T10:59:31;16.10;99.90
9973;DHT22;5027;53.560;10.062;2023-03-19T11:02:06;16.10;99.90
9973;DHT22;5027;53.560;10.062;2023-03-19T11:04:39;16.20;99.90
9973;DHT22;5027;53.560;10.062;2023-03-19T11:07:17;16.30;99.90
9973;DHT22;5027;53.560;10.062;2023-03-19T11:09:49;16.10;99.90
9973;DHT22;5027;53.560;10.062;2023-03-19T11:12:20;16.30;99.90
9973;DHT22;5027;53.560;10.062;2023-03-19T11:14:50;16.30;99.90
9973;DHT22;5027;53.560;10.062;2023-03-19T11:19:51;16.10;99.90
9973;DHT22;5027;53.560;10.062;2023-03-19T11:24:59;16.00;99.90
9973;DHT22;5027;53.560;10.062;2023-03-19T11:27:29;15.90;99.90
9973;DHT22;5027;53.560;10.062;2023-03-19T11:29:57;15.80;99.90
9973;DHT22;5027;53.560;10.062;2023-03-19T11:35:02;15.90;99.90
9973;DHT22;5027;53.560;10.062;2023-03-19T11:37:54;15.80;99.90
9973;DHT22;5027;53.560;10.062;2023-03-19T11:40:30;15.70;99.90
9973;DHT22;5027;53.560;10.062;2023-03-19T11:43:25;15.70;99.90
9973;DHT22;5027;53.560;10.062;2023-03-19T11:46:04;15.90;99.90
9973;DHT22;5027;53.560;10.062;2023-03-19T11:48:43;16.10;99.90
9973;DHT22;5027;53.560;10.062;2023-03-19T11:51:19;16.00;99.90
9973;DHT22;5027;53.560;10.062;2023-03-19T11:54:11;16.00;99.90
9973;DHT22;5027;53.560;10.062;2023-03-19T11:56:47;15.90;99.90
9973;DHT22;5027;53.560;10.062;2023-03-19T11:59:37;15.90;99.90
9973;DHT22;5027;53.560;10.062;2023-03-19T12:08:03;15.90;99.90
9973;DHT22;5027;53.560;10.062;2023-03-19T12:10:51;15.80;99.90
9973;DHT22;5027;53.560;10.062;2023-03-19T12:13:36;15.80;99.90
9973;DHT22;5027;53.560;10.062;2023-03-19T12:19:40;15.80;99.90
9973;DHT22;5027;53.560;10.062;2023-03-19T12:22:22;15.80;99.90
9973;DHT22;5027;53.560;10.062;2023-03-19T12:28:16;15.80;99.90
9973;DHT22;5027;53.560;10.062;2023-03-19T12:34:14;15.90;99.90
9973;DHT22;5027;53.560;10.062;2023-03-19T12:36:59;15.90;99.90
9973;DHT22;5027;53.560;10.062;2023-03-19T12:39:34;15.90;99.90
9973;DHT22;5027;53.560;10.062;2023-03-19T12:42:03;15.80;99.90
9973;DHT22;5027;53.560;10.062;2023-03-19T12:44:35;15.80;99.90
9973;DHT22;5027;53.560;10.062;2023-03-19T12:47:14;15.80;99.90
9973;DHT22;5027;53.560;10.062;2023-03-19T12:50:01;15.90;99.90
9973;DHT22;5027;53.560;10.062;2023-03-19T12:52:41;15.80;99.90
9973;DHT22;5027;53.560;10.062;2023-03-19T12:55:21;15.80;99.90
9973;DHT22;5027;53.560;10.062;2023-03-19T12:58:03;15.80;99.90
9973;DHT22;5027;53.560;10.062;2023-03-19T13:00:44;15.80;99.90
9973;DHT22;5027;53.560;10.062;2023-03-19T13:06:16;15.70;99.90
9973;DHT22;5027;53.560;10.062;2023-03-19T13:09:10;15.70;99.90
9973;DHT22;5027;53.560;10.062;2023-03-19T13:17:24;15.70;99.90
9973;DHT22;5027;53.560;10.062;2023-03-19T13:19:53;15.70;99.90
9973;DHT22;5027;53.560;10.062;2023-03-19T13:22:34;15.70;99.90
9973;DHT22;5027;53.560;10.062;2023-03-19T13:25:02;15.70;99.90
9973;DHT22;5027;53.560;10.062;2023-03-19T13:27:34;15.70;99.90
9973;DHT22;5027;53.560;10.062;2023-03-19T13:32:45;15.70;99.90
9973;DHT22;5027;53.560;10.062;2023-03-19T13:35:33;15.70;99.90
9973;DHT22;5027;53.560;10.062;2023-03-19T13:38:10;15.60;99.90
9973;DHT22;5027;53.560;10.062;2023-03-19T13:40:46;15.60;99.90
9973;DHT22;5027;53.560;10.062;2023-03-19T13:46:35;15.60;99.90
9973;DHT22;5027;53.560;10.062;2023-03-19T13:51:47;15.60;99.90
9973;DHT22;5027;53.560;10.062;2023-03-19T13:54:16;15.60;99.90
9973;DHT22;5027;53.560;10.062;2023-03-19T13:57:04;15.70;99.90
9973;DHT22;5027;53.560;10.062;2023-03-19T13:59:46;15.70;99.90
9973;DHT22;5027;53.560;10.062;2023-03-19T14:05:00;15.70;99.90
9973;DHT22;5027;53.560;10.062;2023-03-19T14:07:29;15.80;99.90
9973;DHT22;5027;53.560;10.062;2023-03-19T14:12:59;15.80;99.90
9973;DHT22;5027;53.560;10.062;2023-03-19T14:15:27;15.70;99.90
9973;DHT22;5027;53.560;10.062;2023-03-19T14:18:00;15.70;99.90
9973;DHT22;5027;53.560;10.062;2023-03-19T14:20:34;15.70;99.90
9973;DHT22;5027;53.560;10.062;2023-03-19T14:23:27;15.70;99.90
9973;DHT22;5027;53.560;10.062;2023-03-19T14:26:19;15.60;99.90
9973;DHT22;5027;53.560;10.062;2023-03-19T14:29:01;15.60;99.90
9973;DHT22;5027;53.560;10.062;2023-03-19T14:31:40;15.60;99.90
9973;DHT22;5027;53.560;10.062;2023-03-19T14:37:23;15.50;99.90
9973;DHT22;5027;53.560;10.062;2023-03-19T14:42:50;15.50;99.90
9973;DHT22;5027;53.560;10.062;2023-03-19T14:57:06;15.60;99.90
9973;DHT22;5027;53.560;10.062;2023-03-19T14:59:37;15.60;99.90
9973;DHT22;5027;53.560;10.062;2023-03-19T15:04:56;15.60;99.90
9973;DHT22;5027;53.560;10.062;2023-03-19T15:07:31;15.60;99.90
9973;DHT22;5027;53.560;10.062;2023-03-19T15:10:00;15.60;99.90
9973;DHT22;5027;53.560;10.062;2023-03-19T15:12:53;15.70;99.90
9973;DHT22;5027;53.560;10.062;2023-03-19T15:18:27;15.70;99.90
9973;DHT22;5027;53.560;10.062;2023-03-19T15:20:54;15.70;99.90
9973;DHT22;5027;53.560;10.062;2023-03-19T15:23:25;15.70;99.90
9973;DHT22;5027;53.560;10.062;2023-03-19T15:25:58;15.60;99.90
9973;DHT22;5027;53.560;10.062;2023-03-19T15:28:32;15.60;99.90
9973;DHT22;5027;53.560;10.062;2023-03-19T15:31:04;15.60;99.90
9973;DHT22;5027;53.560;10.062;2023-03-19T15:33:51;15.60;99.90
9973;DHT22;5027;53.560;10.062;2023-03-19T15:36:30;15.60;99.90
9973;DHT22;5027;53.560;10.062;2023-03-19T15:39:04;15.60;99.90
9973;DHT22;5027;53.560;10.062;2023-03-19T15:41:36;15.60;99.90
9973;DHT22;5027;53.560;10.062;2023-03-19T15:44:10;15.60;99.90
9973;DHT22;5027;53.560;10.062;2023-03-19T15:46:41;15.50;99.90
9973;DHT22;5027;53.560;10.062;2023-03-19T15:49:18;15.50;99.90
9973;DHT22;5027;53.560;10.062;2023-03-19T15:51:47;15.50;99.90
9973;DHT22;5027;53.560;10.062;2023-03-19T15:54:17;15.50;99.90
9973;DHT22;5027;53.560;10.062;2023-03-19T15:56:46;15.60;99.90
9973;DHT22;5027;53.560;10.062;2023-03-19T15:59:14;15.60;99.90
9973;DHT22;5027;53.560;10.062;2023-03-19T16:01:42;15.60;99.90
9973;DHT22;5027;53.560;10.062;2023-03-19T16:04:16;15.60;99.90
9973;DHT22;5027;53.560;10.062;2023-03-19T16:06:48;15.60;99.90
9973;DHT22;5027;53.560;10.062;2023-03-19T16:09:22;15.60;99.90
9973;DHT22;5027;53.560;10.062;2023-03-19T16:11:49;15.60;99.90
9973;DHT22;5027;53.560;10.062;2023-03-19T16:14:23;15.60;99.90
9973;DHT22;5027;53.560;10.062;2023-03-19T16:16:51;15.60;99.90
9973;DHT22;5027;53.560;10.062;2023-03-19T16:19:37;15.50;99.90
9973;DHT22;5027;53.560;10.062;2023-03-19T16:22:14;15.50;99.90
9973;DHT22;5027;53.560;10.062;2023-03-19T16:24:43;15.60;99.90
9973;DHT22;5027;53.560;10.062;2023-03-19T16:27:13;15.50;99.90
9973;DHT22;5027;53.560;10.062;2023-03-19T16:29:46;15.50;99.90
9973;DHT22;5027;53.560;10.062;2023-03-19T16:32:23;15.50;99.90
9973;DHT22;5027;53.560;10.062;2023-03-19T16:38:12;15.50;99.90
9973;DHT22;5027;53.560;10.062;2023-03-19T16:40:41;15.50;99.90
9973;DHT22;5027;53.560;10.062;2023-03-19T16:43:16;15.50;99.90
9973;DHT22;5027;53.560;10.062;2023-03-19T16:45:48;15.50;99.90
9973;DHT22;5027;53.560;10.062;2023-03-19T16:48:15;15.50;99.90
9973;DHT22;5027;53.560;10.062;2023-03-19T16:50:41;15.50;99.90
9973;DHT22;5027;53.560;10.062;2023-03-19T16:53:23;15.50;99.90
9973;DHT22;5027;53.560;10.062;2023-03-19T16:55:52;15.60;99.90
9973;DHT22;5027;53.560;10.062;2023-03-19T16:58:37;15.50;99.90
9973;DHT22;5027;53.560;10.062;2023-03-19T17:01:19;15.50;99.90
9973;DHT22;5027;53.560;10.062;2023-03-19T17:03:47;15.60;99.90
9973;DHT22;5027;53.560;10.062;2023-03-19T17:06:15;15.50;99.90
9973;DHT22;5027;53.560;10.062;2023-03-19T17:08:42;15.50;99.90
9973;DHT22;5027;53.560;10.062;2023-03-19T17:11:27;15.50;99.90
9973;DHT22;5027;53.560;10.062;2023-03-19T17:13:56;15.50;99.90
9973;DHT22;5027;53.560;10.062;2023-03-19T17:16:25;15.40;99.90
9973;DHT22;5027;53.560;10.062;2023-03-19T17:18:52;15.50;99.90
9973;DHT22;5027;53.560;10.062;2023-03-19T17:21:24;15.50;99.90
9973;DHT22;5027;53.560;10.062;2023-03-19T17:23:53;15.50;99.90
9973;DHT22;5027;53.560;10.062;2023-03-19T17:26:29;15.50;99.90
9973;DHT22;5027;53.560;10.062;2023-03-19T17:28:56;15.60;99.90
9973;DHT22;5027;53.560;10.062;2023-03-19T17:31:28;15.50;99.90
9973;DHT22;5027;53.560;10.062;2023-03-19T17:34:02;15.50;99.90
9973;DHT22;5027;53.560;10.062;2023-03-19T17:36:29;15.50;99.90
9973;DHT22;5027;53.560;10.062;2023-03-19T17:38:56;15.40;99.90
9973;DHT22;5027;53.560;10.062;2023-03-19T17:41:22;15.40;99.90
9973;DHT22;5027;53.560;10.062;2023-03-19T17:43:49;15.40;99.90